Time;durP1;ratioP1;P1;durP2;ratioP2;P2;SDS_P1;SDS_P2;PMS_P1;PMS_P2;Temp;Humidity;BMP_temperature;BMP_pressure;BME280_temperature;BME280_humidity;BME280_pressure;Samples;Min_cycle;Max_cycle;Signal;HPM_P1;HPM_P2
2023/04/22 00:01:05;;;;;;;8.68;6.45;;;;;;;;;;5016394;28;20085;-58
2023/04/22 00:03:32;;;;;;;8.25;5.25;;;;;;;;;;5016592;28;20066;-57
2023/04/22 00:05:58;;;;;;;7.13;4.97;;;;;;;;;;5015072;28;20120;-57
2023/04/22 00:08:24;;;;;;;8.55;5.20;;;;;;;;;;5014623;28;20038;-57
2023/04/22 00:10:50;;;;;;;11.15;6.38;;;;;;;;;;5016229;28;20101;-57
2023/04/22 00:13:16;;;;;;;6.43;5.03;;;;;;;;;;5016335;28;20089;-57
2023/04/22 00:15:42;;;;;;;7.55;5.40;;;;;;;;;;5016627;28;20077;-57
2023/04/22 00:18:12;;;;;;;9.05;5.80;;;;;;;;;;5014766;28;20038;-57
2023/04/22 00:20:39;;;;;;;6.82;5.32;;;;;;;;;;5016677;28;20488;-57
2023/04/22 00:23:05;;;;;;;9.45;5.90;;;;;;;;;;5046481;28;20109;-57
2023/04/22 00:25:31;;;;;;;8.60;6.68;;;;;;;;;;5047598;28;20578;-57
2023/04/22 00:27:57;;;;;;;8.35;5.78;;;;;;;;;;5015049;28;20046;-58
2023/04/22 00:30:23;;;;;;;7.45;5.75;;;;;;;;;;5016110;28;20045;-58
2023/04/22 00:32:49;;;;;;;8.55;5.45;;;;;;;;;;5015294;28;20050;-58
2023/04/22 00:35:15;;;;;;;8.85;6.00;;;;;;;;;;5016499;28;20062;-58
2023/04/22 00:37:41;;;;;;;6.80;5.63;;;;;;;;;;5016201;28;20053;-57
2023/04/22 00:40:08;;;;;;;9.13;6.28;;;;;;;;;;5015516;28;20045;-58
2023/04/22 00:42:34;;;;;;;8.55;5.95;;;;;;;;;;5015640;28;20050;-58
2023/04/22 00:45:01;;;;;;;8.38;5.80;;;;;;;;;;5014453;28;20049;-58
2023/04/22 00:47:27;;;;;;;9.25;5.38;;;;;;;;;;5015298;28;20065;-58
2023/04/22 00:49:54;;;;;;;7.75;5.32;;;;;;;;;;5015770;28;20073;-58
2023/04/22 00:52:20;;;;;;;9.93;5.47;;;;;;;;;;5014695;28;20125;-58
2023/04/22 00:54:48;;;;;;;10.55;6.45;;;;;;;;;;5015820;28;20523;-57
2023/04/22 00:57:14;;;;;;;9.05;6.30;;;;;;;;;;5014871;28;20037;-57
2023/04/22 00:59:41;;;;;;;9.02;6.07;;;;;;;;;;5015404;28;20038;-58
2023/04/22 01:02:07;;;;;;;7.85;4.65;;;;;;;;;;5014770;28;20044;-57
2023/04/22 01:04:34;;;;;;;10.75;5.70;;;;;;;;;;5016322;28;20046;-57
2023/04/22 01:07:01;;;;;;;9.38;5.78;;;;;;;;;;5011224;28;20137;-57
2023/04/22 01:09:27;;;;;;;10.50;6.68;;;;;;;;;;5016413;28;20531;-57
2023/04/22 01:11:53;;;;;;;9.20;5.85;;;;;;;;;;5014694;28;20090;-58
2023/04/22 01:14:19;;;;;;;10.55;6.45;;;;;;;;;;5014961;28;20050;-57
2023/04/22 01:16:47;;;;;;;7.68;4.82;;;;;;;;;;5015277;28;20041;-57
2023/04/22 01:19:13;;;;;;;8.48;5.82;;;;;;;;;;5015600;28;20451;-58
2023/04/22 01:21:39;;;;;;;10.68;6.45;;;;;;;;;;5031746;28;20096;-57
2023/04/22 01:24:06;;;;;;;9.30;6.78;;;;;;;;;;5015412;28;20045;-57
2023/04/22 01:26:33;;;;;;;11.25;6.55;;;;;;;;;;5014506;28;20046;-57
2023/04/22 01:29:00;;;;;;;8.30;6.05;;;;;;;;;;5014926;28;20516;-58
2023/04/22 01:31:27;;;;;;;10.65;7.13;;;;;;;;;;5014603;28;20576;-57
2023/04/22 01:33:53;;;;;;;9.32;6.20;;;;;;;;;;5014394;28;20471;-57
2023/04/22 01:36:19;;;;;;;9.52;5.45;;;;;;;;;;5014944;28;20072;-57
2023/04/22 01:38:46;;;;;;;9.27;6.03;;;;;;;;;;5015585;28;20108;-57
2023/04/22 01:41:13;;;;;;;10.35;6.50;;;;;;;;;;5007605;28;20567;-57
2023/04/22 01:43:39;;;;;;;9.73;6.45;;;;;;;;;;5015701;28;20086;-58
2023/04/22 01:46:06;;;;;;;10.50;6.18;;;;;;;;;;5015236;28;20040;-57
2023/04/22 01:48:32;;;;;;;11.15;6.65;;;;;;;;;;5018749;28;20451;-58
2023/04/22 01:50:58;;;;;;;10.57;7.05;;;;;;;;;;5017704;28;20046;-57
2023/04/22 01:53:24;;;;;;;11.13;8.02;;;;;;;;;;5019541;28;20042;-58
2023/04/22 01:55:50;;;;;;;11.50;7.82;;;;;;;;;;5015850;28;20124;-57
2023/04/22 01:58:16;;;;;;;10.82;6.32;;;;;;;;;;5018335;28;20038;-57
2023/04/22 02:00:42;;;;;;;12.77;8.00;;;;;;;;;;5018764;28;20050;-58
2023/04/22 02:03:08;;;;;;;10.07;7.57;;;;;;;;;;5049790;28;20096;-57
2023/04/22 02:05:34;;;;;;;12.00;7.45;;;;;;;;;;5017499;28;20061;-58
2023/04/22 02:08:00;;;;;;;10.48;7.00;;;;;;;;;;5017349;28;20131;-58
2023/04/22 02:10:26;;;;;;;10.70;6.80;;;;;;;;;;5018332;28;20069;-57
2023/04/22 02:12:52;;;;;;;11.50;6.88;;;;;;;;;;5017703;28;21303;-57
2023/04/22 02:15:18;;;;;;;10.95;7.25;;;;;;;;;;5018168;28;20045;-58
2023/04/22 02:17:45;;;;;;;11.52;7.13;;;;;;;;;;5016529;28;20038;-58
2023/04/22 02:20:11;;;;;;;10.52;6.65;;;;;;;;;;5018289;28;20093;-58
2023/04/22 02:22:38;;;;;;;10.85;7.40;;;;;;;;;;5016775;28;20582;-58
2023/04/22 02:25:04;;;;;;;12.77;7.13;;;;;;;;;;5018499;28;20054;-58
2023/04/22 02:27:30;;;;;;;10.05;6.90;;;;;;;;;;5017446;28;20038;-58
2023/04/22 02:29:56;;;;;;;11.18;7.68;;;;;;;;;;5016848;28;20555;-57
2023/04/22 02:32:23;;;;;;;11.48;7.22;;;;;;;;;;5016709;28;20042;-58
2023/04/22 02:34:49;;;;;;;11.25;7.25;;;;;;;;;;5017181;28;20049;-58
2023/04/22 02:37:15;;;;;;;11.77;8.25;;;;;;;;;;5016550;28;20110;-58
2023/04/22 02:39:42;;;;;;;13.55;8.15;;;;;;;;;;5016384;28;20034;-59
2023/04/22 02:42:08;;;;;;;11.40;7.63;;;;;;;;;;5017031;28;20069;-57
2023/04/22 02:44:34;;;;;;;13.32;9.18;;;;;;;;;;5016660;28;20042;-57
2023/04/22 02:47:02;;;;;;;12.23;8.88;;;;;;;;;;5016905;28;20093;-57
2023/04/22 02:49:28;;;;;;;11.85;7.45;;;;;;;;;;5016448;28;20058;-58
2023/04/22 02:51:54;;;;;;;10.93;7.47;;;;;;;;;;5017030;28;20133;-57
2023/04/22 02:54:20;;;;;;;10.70;8.10;;;;;;;;;;5016328;28;20042;-57
2023/04/22 02:56:46;;;;;;;11.23;7.88;;;;;;;;;;5017737;28;20159;-58
2023/04/22 02:59:12;;;;;;;12.50;9.00;;;;;;;;;;5016791;28;20528;-58
2023/04/22 03:01:39;;;;;;;13.05;7.63;;;;;;;;;;5016851;28;20731;-57
2023/04/22 03:04:05;;;;;;;12.82;8.25;;;;;;;;;;5016477;28;20048;-57
2023/04/22 03:06:31;;;;;;;10.90;7.80;;;;;;;;;;5017812;28;20516;-57
2023/04/22 03:08:57;;;;;;;13.13;8.98;;;;;;;;;;5016051;28;20051;-57
2023/04/22 03:11:23;;;;;;;13.93;8.23;;;;;;;;;;5017073;28;20077;-58
2023/04/22 03:13:49;;;;;;;12.98;7.32;;;;;;;;;;5016483;28;20073;-57
2023/04/22 03:16:18;;;;;;;11.20;7.30;;;;;;;;;;5032478;28;20042;-58
2023/04/22 03:18:45;;;;;;;10.43;7.07;;;;;;;;;;5016685;28;20099;-57
2023/04/22 03:21:11;;;;;;;11.85;8.63;;;;;;;;;;5016310;28;20087;-58
2023/04/22 03:23:37;;;;;;;17.38;9.65;;;;;;;;;;5016945;28;20495;-57
2023/04/22 03:26:03;;;;;;;14.00;8.48;;;;;;;;;;5014922;28;20085;-59
2023/04/22 03:28:29;;;;;;;14.00;8.60;;;;;;;;;;5017068;28;20046;-58
2023/04/22 03:30:55;;;;;;;11.38;8.07;;;;;;;;;;5017208;28;20080;-58
2023/04/22 03:33:21;;;;;;;15.75;7.85;;;;;;;;;;5017036;28;20120;-59
2023/04/22 03:35:48;;;;;;;12.93;7.95;;;;;;;;;;5016701;28;21012;-59
2023/04/22 03:38:14;;;;;;;12.18;8.70;;;;;;;;;;5016811;28;20643;-59
2023/04/22 03:40:41;;;;;;;13.52;8.23;;;;;;;;;;5016166;28;20850;-59
2023/04/22 03:43:07;;;;;;;11.38;8.57;;;;;;;;;;5016487;28;20602;-59
2023/04/22 03:45:34;;;;;;;12.15;8.50;;;;;;;;;;5033173;28;20042;-58
2023/04/22 03:48:00;;;;;;;11.93;8.38;;;;;;;;;;5017001;28;20050;-59
2023/04/22 03:50:26;;;;;;;13.25;8.00;;;;;;;;;;5016390;28;20042;-59
2023/04/22 03:52:52;;;;;;;11.88;8.27;;;;;;;;;;5016714;28;20038;-59
2023/04/22 03:55:18;;;;;;;11.85;7.13;;;;;;;;;;5015561;28;20093;-59
2023/04/22 03:57:44;;;;;;;12.13;8.25;;;;;;;;;;5032194;28;20057;-59
2023/04/22 04:00:11;;;;;;;12.00;7.90;;;;;;;;;;5015011;28;20624;-58
2023/04/22 04:02:37;;;;;;;11.95;7.82;;;;;;;;;;5016182;28;20125;-59
2023/04/22 04:05:04;;;;;;;11.65;7.45;;;;;;;;;;5016452;28;20041;-58
2023/04/22 04:07:30;;;;;;;12.98;9.10;;;;;;;;;;5015841;28;20050;-59
2023/04/22 04:09:56;;;;;;;14.18;9.68;;;;;;;;;;5008550;28;20054;-59
2023/04/22 04:12:22;;;;;;;14.93;8.30;;;;;;;;;;5015575;28;20045;-59
2023/04/22 04:14:48;;;;;;;14.13;8.65;;;;;;;;;;5015931;28;20053;-59
2023/04/22 04:17:14;;;;;;;12.15;8.65;;;;;;;;;;5016154;28;20042;-58
2023/04/22 04:19:40;;;;;;;14.38;8.82;;;;;;;;;;5015588;28;20050;-59
2023/04/22 04:22:07;;;;;;;11.48;8.38;;;;;;;;;;5015098;28;20630;-58
2023/04/22 04:24:35;;;;;;;11.93;8.77;;;;;;;;;;5031124;28;20136;-59
2023/04/22 04:27:01;;;;;;;13.60;8.95;;;;;;;;;;5016198;28;20050;-59
2023/04/22 04:29:28;;;;;;;15.55;9.88;;;;;;;;;;5015084;28;20551;-59
2023/04/22 04:31:54;;;;;;;19.48;9.30;;;;;;;;;;5015815;28;21225;-59
2023/04/22 04:34:20;;;;;;;14.80;9.77;;;;;;;;;;5015363;28;20445;-59
2023/04/22 04:36:47;;;;;;;15.13;9.48;;;;;;;;;;5015825;28;20073;-59
2023/04/22 04:39:17;;;;;;;13.45;9.25;;;;;;;;;;5014633;28;20038;-61
2023/04/22 04:41:44;;;;;;;15.70;9.07;;;;;;;;;;5014917;28;20515;-59
2023/04/22 04:44:11;;;;;;;13.55;9.00;;;;;;;;;;5014709;28;20507;-58
2023/04/22 04:46:37;;;;;;;16.05;9.98;;;;;;;;;;5015990;28;20109;-59
2023/04/22 04:49:04;;;;;;;15.45;10.32;;;;;;;;;;5014959;28;20053;-59
2023/04/22 04:51:33;;;;;;;15.38;9.60;;;;;;;;;;5016631;28;20224;-59
2023/04/22 04:53:59;;;;;;;14.65;9.30;;;;;;;;;;5015452;28;20177;-59
2023/04/22 04:56:25;;;;;;;13.63;9.55;;;;;;;;;;5015869;28;20043;-59
2023/04/22 04:58:51;;;;;;;16.13;10.23;;;;;;;;;;5014934;28;20094;-59
2023/04/22 05:01:17;;;;;;;13.73;10.20;;;;;;;;;;5014906;28;20041;-59
2023/04/22 05:03:43;;;;;;;21.48;11.60;;;;;;;;;;5015064;28;20101;-59
2023/04/22 05:06:09;;;;;;;15.02;10.85;;;;;;;;;;5014349;28;20038;-59
2023/04/22 05:08:35;;;;;;;15.00;10.35;;;;;;;;;;5015351;28;20100;-59
2023/04/22 05:11:02;;;;;;;19.10;10.05;;;;;;;;;;5014268;28;20042;-59
2023/04/22 05:13:28;;;;;;;15.65;10.20;;;;;;;;;;5015466;28;20046;-59
2023/04/22 05:15:54;;;;;;;16.08;10.75;;;;;;;;;;5014116;28;20089;-59
2023/04/22 05:18:21;;;;;;;14.60;10.75;;;;;;;;;;5014848;28;20125;-59
2023/04/22 05:20:47;;;;;;;16.10;11.32;;;;;;;;;;5013323;28;20038;-59
2023/04/22 05:23:14;;;;;;;14.60;9.88;;;;;;;;;;5014477;28;20037;-59
2023/04/22 05:25:40;;;;;;;16.67;10.02;;;;;;;;;;5015907;28;20511;-59
2023/04/22 05:28:06;;;;;;;18.60;11.07;;;;;;;;;;5014165;28;20120;-59
2023/04/22 05:30:32;;;;;;;20.33;13.75;;;;;;;;;;5015908;28;20046;-59
2023/04/22 05:32:58;;;;;;;16.30;10.63;;;;;;;;;;5014714;28;20046;-59
2023/04/22 05:35:24;;;;;;;18.10;11.05;;;;;;;;;;5015250;28;22507;-59
2023/04/22 05:37:50;;;;;;;19.95;11.20;;;;;;;;;;5014801;28;20050;-59
2023/04/22 05:40:16;;;;;;;15.40;11.00;;;;;;;;;;5015373;28;20044;-59
2023/04/22 05:42:43;;;;;;;19.20;11.60;;;;;;;;;;5013788;28;20077;-59
2023/04/22 05:45:09;;;;;;;17.27;12.13;;;;;;;;;;5014878;28;20042;-59
2023/04/22 05:47:35;;;;;;;16.80;12.68;;;;;;;;;;5014214;28;20046;-59
2023/04/22 05:50:01;;;;;;;21.88;12.65;;;;;;;;;;5014011;28;20072;-59
2023/04/22 05:52:27;;;;;;;18.50;12.38;;;;;;;;;;5013775;28;20046;-59
2023/04/22 05:54:53;;;;;;;18.20;12.55;;;;;;;;;;5014660;28;20038;-59
2023/04/22 05:57:19;;;;;;;17.98;12.35;;;;;;;;;;5014724;28;20151;-59
2023/04/22 05:59:45;;;;;;;18.25;12.45;;;;;;;;;;5014038;28;20077;-59
2023/04/22 06:02:12;;;;;;;21.08;12.35;;;;;;;;;;5013098;28;20042;-59
2023/04/22 06:04:38;;;;;;;22.60;11.82;;;;;;;;;;5015849;28;20050;-59
2023/04/22 06:07:04;;;;;;;20.63;12.35;;;;;;;;;;5013624;28;20088;-59
2023/04/22 06:09:30;;;;;;;18.23;11.90;;;;;;;;;;5014318;28;20053;-59
2023/04/22 06:11:57;;;;;;;18.30;12.07;;;;;;;;;;5014711;28;20803;-59
2023/04/22 06:14:23;;;;;;;22.58;12.50;;;;;;;;;;5014094;28;20042;-59
2023/04/22 06:16:52;;;;;;;24.42;13.50;;;;;;;;;;5013767;28;20042;-59
2023/04/22 06:19:18;;;;;;;22.40;13.63;;;;;;;;;;5013035;28;20145;-59
2023/04/22 06:21:45;;;;;;;19.90;11.90;;;;;;;;;;5014514;28;20041;-59
2023/04/22 06:24:11;;;;;;;20.85;12.77;;;;;;;;;;5013302;28;20037;-59
2023/04/22 06:26:37;;;;;;;17.27;11.98;;;;;;;;;;5014506;28;20070;-59
2023/04/22 06:29:04;;;;;;;20.45;12.70;;;;;;;;;;5013257;28;20042;-59
2023/04/22 06:31:33;;;;;;;21.30;14.10;;;;;;;;;;5007670;28;20053;-59
2023/04/22 06:33:59;;;;;;;21.05;13.63;;;;;;;;;;5016703;28;20578;-59
2023/04/22 06:36:26;;;;;;;19.50;12.88;;;;;;;;;;5018372;28;20137;-59
2023/04/22 06:38:52;;;;;;;17.45;11.13;;;;;;;;;;5015784;28;21230;-59
2023/04/22 06:41:18;;;;;;;16.55;12.40;;;;;;;;;;5017791;28;20057;-59
2023/04/22 06:43:45;;;;;;;21.50;14.77;;;;;;;;;;5047980;28;20170;-59
2023/04/22 06:46:11;;;;;;;19.35;11.88;;;;;;;;;;5018142;28;20129;-59
2023/04/22 06:48:37;;;;;;;20.00;12.43;;;;;;;;;;5016497;28;20409;-59
2023/04/22 06:51:03;;;;;;;18.08;12.75;;;;;;;;;;5018621;28;20420;-60
2023/04/22 06:53:29;;;;;;;19.30;12.82;;;;;;;;;;5013366;28;20054;-59
2023/04/22 06:55:55;;;;;;;21.85;13.15;;;;;;;;;;5017336;28;20046;-59
2023/04/22 06:58:21;;;;;;;18.55;12.13;;;;;;;;;;5016980;28;20044;-59
2023/04/22 07:00:47;;;;;;;22.08;12.95;;;;;;;;;;5018366;28;20368;-59
2023/04/22 07:03:13;;;;;;;17.35;11.82;;;;;;;;;;5017215;28;20155;-59
2023/04/22 07:05:39;;;;;;;20.02;13.60;;;;;;;;;;5016819;28;20197;-59
2023/04/22 07:08:05;;;;;;;17.17;12.10;;;;;;;;;;5017475;28;20516;-59
2023/04/22 07:10:32;;;;;;;19.42;11.98;;;;;;;;;;5017866;28;20524;-59
2023/04/22 07:12:58;;;;;;;19.67;12.95;;;;;;;;;;5017521;28;20049;-59
2023/04/22 07:15:24;;;;;;;19.95;13.38;;;;;;;;;;5017209;28;20050;-59
2023/04/22 07:17:50;;;;;;;21.85;13.88;;;;;;;;;;5017755;28;20074;-59
2023/04/22 07:20:16;;;;;;;25.13;13.80;;;;;;;;;;5016999;28;20125;-60
2023/04/22 07:22:42;;;;;;;23.75;14.77;;;;;;;;;;5016111;28;20077;-60
2023/04/22 07:25:08;;;;;;;22.80;14.52;;;;;;;;;;5047909;28;20038;-59
2023/04/22 07:27:35;;;;;;;21.23;14.25;;;;;;;;;;5017030;28;20140;-59
2023/04/22 07:30:01;;;;;;;20.15;14.90;;;;;;;;;;5016954;28;20831;-59
2023/04/22 07:32:27;;;;;;;19.40;13.05;;;;;;;;;;5016992;28;20100;-59
2023/04/22 07:34:53;;;;;;;22.80;13.80;;;;;;;;;;5017064;28;20102;-59
2023/04/22 07:37:21;;;;;;;19.88;13.73;;;;;;;;;;5015447;28;20054;-60
2023/04/22 07:39:47;;;;;;;20.73;13.30;;;;;;;;;;5017060;28;20038;-59
2023/04/22 07:42:13;;;;;;;22.23;14.02;;;;;;;;;;5015405;28;20053;-59
2023/04/22 07:44:39;;;;;;;19.27;12.90;;;;;;;;;;5015415;28;20560;-59
2023/04/22 07:47:07;;;;;;;24.13;14.25;;;;;;;;;;5015085;28;20042;-60
2023/04/22 07:49:33;;;;;;;23.73;13.77;;;;;;;;;;5017472;28;20034;-59
2023/04/22 07:51:59;;;;;;;19.42;13.50;;;;;;;;;;5015807;28;20052;-59
2023/04/22 07:54:25;;;;;;;18.65;13.73;;;;;;;;;;5015537;28;20125;-59
2023/04/22 07:56:51;;;;;;;22.98;14.38;;;;;;;;;;5016187;28;20830;-59
2023/04/22 07:59:17;;;;;;;22.52;13.65;;;;;;;;;;5016208;28;20049;-59
2023/04/22 08:01:45;;;;;;;20.05;13.18;;;;;;;;;;5015517;28;20122;-59
2023/04/22 08:04:11;;;;;;;19.77;13.10;;;;;;;;;;5015834;28;20117;-59
2023/04/22 08:06:37;;;;;;;19.45;12.95;;;;;;;;;;5016764;28;20081;-59
2023/04/22 08:09:04;;;;;;;22.08;14.38;;;;;;;;;;5015275;28;20048;-59
2023/04/22 08:11:30;;;;;;;20.48;12.65;;;;;;;;;;5048028;28;20104;-60
2023/04/22 08:13:56;;;;;;;19.98;13.77;;;;;;;;;;5015066;28;20050;-59
2023/04/22 08:16:22;;;;;;;17.85;12.32;;;;;;;;;;5015095;28;22307;-59
2023/04/22 08:18:48;;;;;;;21.45;14.25;;;;;;;;;;5047182;28;20097;-59
2023/04/22 08:21:14;;;;;;;19.83;12.93;;;;;;;;;;5015264;28;20046;-59
2023/04/22 08:23:40;;;;;;;20.42;13.35;;;;;;;;;;5016139;28;20041;-59
2023/04/22 08:26:07;;;;;;;21.88;12.85;;;;;;;;;;5045725;28;20068;-59
2023/04/22 08:28:34;;;;;;;18.10;10.77;;;;;;;;;;5016293;28;20041;-60
2023/04/22 08:31:00;;;;;;;17.35;11.95;;;;;;;;;;5014486;28;20050;-60
2023/04/22 08:33:26;;;;;;;17.67;11.48;;;;;;;;;;5015157;28;20050;-60
2023/04/22 08:35:52;;;;;;;17.17;11.43;;;;;;;;;;5015836;28;20588;-60
2023/04/22 08:38:19;;;;;;;16.63;12.38;;;;;;;;;;5016423;28;20042;-60
2023/04/22 08:40:45;;;;;;;17.65;11.40;;;;;;;;;;5015370;28;20048;-60
2023/04/22 08:43:11;;;;;;;17.40;11.25;;;;;;;;;;5015258;28;20162;-60
2023/04/22 08:45:39;;;;;;;16.98;11.93;;;;;;;;;;5015226;28;20069;-60
2023/04/22 08:48:06;;;;;;;15.30;10.85;;;;;;;;;;5015354;28;20042;-60
2023/04/22 08:50:33;;;;;;;17.52;10.10;;;;;;;;;;5014712;28;20041;-60
2023/04/22 08:52:59;;;;;;;11.93;7.20;;;;;;;;;;5015534;28;20050;-60
2023/04/22 08:55:26;;;;;;;15.20;10.25;;;;;;;;;;5014885;28;20042;-60
2023/04/22 08:57:52;;;;;;;14.80;10.30;;;;;;;;;;5015615;28;20038;-60
2023/04/22 09:00:19;;;;;;;16.52;10.70;;;;;;;;;;5014795;28;20728;-60
2023/04/22 09:02:45;;;;;;;15.32;10.35;;;;;;;;;;5014838;28;20088;-60
2023/04/22 09:05:13;;;;;;;15.95;11.30;;;;;;;;;;5015057;28;20864;-60
2023/04/22 09:07:39;;;;;;;18.10;10.35;;;;;;;;;;5014408;28;20096;-60
2023/04/22 09:10:07;;;;;;;17.17;10.70;;;;;;;;;;5015499;28;20073;-60
2023/04/22 09:12:33;;;;;;;14.75;9.85;;;;;;;;;;5014390;28;20050;-60
2023/04/22 09:14:59;;;;;;;16.92;12.05;;;;;;;;;;5015268;28;20042;-60
2023/04/22 09:17:32;;;;;;;13.40;9.20;;;;;;;;;;5015377;28;20646;-60
2023/04/22 09:19:59;;;;;;;14.48;10.27;;;;;;;;;;5015346;28;20100;-60
2023/04/22 09:22:26;;;;;;;15.52;10.57;;;;;;;;;;5014319;28;20209;-58
2023/04/22 09:24:52;;;;;;;13.93;9.80;;;;;;;;;;5014990;28;20038;-58
2023/04/22 09:27:18;;;;;;;14.38;10.60;;;;;;;;;;5014969;28;20096;-58
2023/04/22 09:29:54;;;;;;;16.17;10.82;;;;;;;;;;5016201;28;20046;-58
2023/04/22 09:32:20;;;;;;;12.30;9.10;;;;;;;;;;5013442;28;20133;-58
2023/04/22 09:34:50;;;;;;;14.23;8.48;;;;;;;;;;5015775;28;20041;-58
2023/04/22 09:37:22;;;;;;;16.52;10.00;;;;;;;;;;5014649;28;20045;-58
2023/04/22 09:39:51;;;;;;;15.40;9.77;;;;;;;;;;5015696;28;20042;-58
2023/04/22 09:42:18;;;;;;;17.75;8.95;;;;;;;;;;5014517;28;20134;-58
2023/04/22 09:44:51;;;;;;;17.58;10.07;;;;;;;;;;5015450;28;20072;-58
2023/04/22 09:47:18;;;;;;;19.83;9.20;;;;;;;;;;5015147;28;20129;-58
2023/04/22 09:49:48;;;;;;;15.07;10.38;;;;;;;;;;5014856;28;20038;-59
2023/04/22 09:52:24;;;;;;;13.80;9.32;;;;;;;;;;5015272;28;20092;-58
2023/04/22 09:54:50;;;;;;;14.15;10.35;;;;;;;;;;5013836;28;20042;-58
2023/04/22 09:57:17;;;;;;;17.33;10.07;;;;;;;;;;5014379;28;20030;-58
2023/04/22 09:59:43;;;;;;;15.35;9.57;;;;;;;;;;5013051;28;20054;-58
2023/04/22 10:02:09;;;;;;;14.90;9.68;;;;;;;;;;5030118;28;20042;-58
2023/04/22 10:04:35;;;;;;;14.20;8.70;;;;;;;;;;5014118;28;20042;-59
2023/04/22 10:07:01;;;;;;;12.85;8.00;;;;;;;;;;5016731;28;20041;-58
2023/04/22 10:09:28;;;;;;;14.40;8.98;;;;;;;;;;5017784;28;20053;-58
2023/04/22 10:11:56;;;;;;;13.68;9.55;;;;;;;;;;5018166;28;20089;-58
2023/04/22 10:14:22;;;;;;;14.63;9.65;;;;;;;;;;5016605;28;20201;-58
2023/04/22 10:16:49;;;;;;;10.95;7.57;;;;;;;;;;5018734;28;20045;-58
2023/04/22 10:19:17;;;;;;;12.77;8.57;;;;;;;;;;5017332;28;20611;-58
2023/04/22 10:21:45;;;;;;;11.48;7.38;;;;;;;;;;5018412;28;20166;-58
2023/04/22 10:24:15;;;;;;;11.40;7.00;;;;;;;;;;5016929;28;20563;-58
2023/04/22 10:26:43;;;;;;;11.82;6.97;;;;;;;;;;5017380;28;20048;-58
2023/04/22 10:29:15;;;;;;;9.15;6.32;;;;;;;;;;5017044;28;20054;-58
2023/04/22 10:31:42;;;;;;;13.80;8.52;;;;;;;;;;5017974;28;20050;-57
2023/04/22 10:34:10;;;;;;;12.32;7.75;;;;;;;;;;5017488;28;20042;-57
2023/04/22 10:36:52;;;;;;;10.90;7.57;;;;;;;;;;5010770;28;20532;-57
2023/04/22 10:39:20;;;;;;;15.30;8.20;;;;;;;;;;5016709;28;20034;-57
2023/04/22 10:41:54;;;;;;;11.43;7.18;;;;;;;;;;5017033;28;20129;-57
2023/04/22 10:44:21;;;;;;;9.48;6.40;;;;;;;;;;5016809;28;20530;-57
2023/04/22 10:46:51;;;;;;;8.23;6.60;;;;;;;;;;5017666;28;20038;-57
2023/04/22 10:49:21;;;;;;;11.25;6.63;;;;;;;;;;5017433;28;21022;-57
2023/04/22 10:51:47;;;;;;;13.23;7.90;;;;;;;;;;5015514;28;20061;-57
2023/04/22 10:54:26;;;;;;;10.82;7.53;;;;;;;;;;5018352;28;20041;-57
2023/04/22 10:57:02;;;;;;;10.65;6.65;;;;;;;;;;5017161;28;20120;-58
2023/04/22 10:59:28;;;;;;;9.77;6.47;;;;;;;;;;5017761;28;20038;-57
2023/04/22 11:01:54;;;;;;;9.63;6.90;;;;;;;;;;5016651;28;20042;-58
2023/04/22 11:04:21;;;;;;;9.32;6.72;;;;;;;;;;5015959;28;20045;-57
2023/04/22 11:07:06;;;;;;;10.52;6.43;;;;;;;;;;5016235;28;20098;-57
2023/04/22 11:09:33;;;;;;;8.73;6.10;;;;;;;;;;5016889;28;20647;-57
2023/04/22 11:12:17;;;;;;;10.60;7.00;;;;;;;;;;5018183;28;20524;-58
2023/04/22 11:14:44;;;;;;;9.20;6.10;;;;;;;;;;5016250;28;20065;-57
2023/04/22 11:17:10;;;;;;;10.52;7.40;;;;;;;;;;5017005;28;20056;-57
2023/04/22 11:19:36;;;;;;;9.85;6.70;;;;;;;;;;5045656;28;20085;-57
2023/04/22 11:22:02;;;;;;;10.55;7.25;;;;;;;;;;5017700;28;20044;-58
2023/04/22 11:24:28;;;;;;;8.25;6.82;;;;;;;;;;5016626;28;20177;-58
2023/04/22 11:26:55;;;;;;;10.35;6.53;;;;;;;;;;5016483;28;20038;-58
2023/04/22 11:29:22;;;;;;;9.80;7.28;;;;;;;;;;5015626;28;20050;-58
2023/04/22 11:31:48;;;;;;;8.15;6.13;;;;;;;;;;5016570;28;20532;-58
2023/04/22 11:34:14;;;;;;;11.02;7.07;;;;;;;;;;5015432;28;20038;-58
2023/04/22 11:36:45;;;;;;;12.82;6.40;;;;;;;;;;5017187;28;20041;-58
2023/04/22 11:39:13;;;;;;;9.63;6.50;;;;;;;;;;5016863;28;20042;-58
2023/04/22 11:41:43;;;;;;;10.48;6.38;;;;;;;;;;5017724;28;20630;-58
2023/04/22 11:44:09;;;;;;;10.77;7.00;;;;;;;;;;5016380;28;20128;-58
2023/04/22 11:46:38;;;;;;;9.52;6.57;;;;;;;;;;5016867;28;20053;-58
2023/04/22 11:49:14;;;;;;;8.38;5.90;;;;;;;;;;5016994;28;20089;-58
2023/04/22 11:52:00;;;;;;;10.82;7.55;;;;;;;;;;5016492;28;20096;-57
2023/04/22 11:54:33;;;;;;;8.63;6.78;;;;;;;;;;5016319;28;20046;-58
2023/04/22 11:57:03;;;;;;;10.27;6.60;;;;;;;;;;5016361;28;20209;-58
2023/04/22 11:59:29;;;;;;;12.18;6.80;;;;;;;;;;5017301;28;20244;-57
2023/04/22 12:01:55;;;;;;;9.40;6.53;;;;;;;;;;5015929;28;20050;-58
2023/04/22 12:04:21;;;;;;;10.77;7.30;;;;;;;;;;5016468;28;20623;-58
2023/04/22 12:06:49;;;;;;;13.25;6.80;;;;;;;;;;5015794;28;20096;-58
2023/04/22 12:09:15;;;;;;;9.70;6.93;;;;;;;;;;5015606;28;20048;-58
2023/04/22 12:11:41;;;;;;;11.73;7.85;;;;;;;;;;5015770;28;20046;-58
2023/04/22 12:14:07;;;;;;;9.35;7.25;;;;;;;;;;5015048;28;20603;-58
2023/04/22 12:16:40;;;;;;;11.20;6.57;;;;;;;;;;5015994;28;20046;-58
2023/04/22 12:19:06;;;;;;;13.38;7.82;;;;;;;;;;5016237;28;20987;-58
2023/04/22 12:21:32;;;;;;;7.68;6.13;;;;;;;;;;5015801;28;20413;-58
2023/04/22 12:24:03;;;;;;;9.95;6.18;;;;;;;;;;5015993;28;20076;-58
2023/04/22 12:26:29;;;;;;;9.50;6.63;;;;;;;;;;5016042;28;20072;-58
2023/04/22 12:28:57;;;;;;;10.05;7.20;;;;;;;;;;5015722;28;20089;-58
2023/04/22 12:31:23;;;;;;;9.45;6.97;;;;;;;;;;5015389;28;20540;-58
2023/04/22 12:33:49;;;;;;;10.85;6.57;;;;;;;;;;5015424;28;20046;-58
2023/04/22 12:36:16;;;;;;;9.02;6.32;;;;;;;;;;5015536;28;20042;-58
2023/04/22 12:38:42;;;;;;;9.63;5.57;;;;;;;;;;5015159;28;20048;-57
2023/04/22 12:41:09;;;;;;;6.60;5.70;;;;;;;;;;5016153;28;20531;-58
2023/04/22 12:43:36;;;;;;;9.90;6.53;;;;;;;;;;5014144;28;20054;-58
2023/04/22 12:46:02;;;;;;;8.98;5.68;;;;;;;;;;5016485;28;20041;-58
2023/04/22 12:48:28;;;;;;;7.53;5.60;;;;;;;;;;5014585;28;20073;-58
2023/04/22 12:50:56;;;;;;;7.85;5.53;;;;;;;;;;5016375;28;20042;-58
2023/04/22 12:53:22;;;;;;;8.65;4.88;;;;;;;;;;5014785;28;20048;-58
2023/04/22 12:55:48;;;;;;;8.63;6.25;;;;;;;;;;5047585;28;20125;-58
2023/04/22 12:58:14;;;;;;;6.20;3.28;;;;;;;;;;5015072;28;20122;-58
2023/04/22 13:00:41;;;;;;;6.70;5.38;;;;;;;;;;5046716;28;20053;-58
2023/04/22 13:03:07;;;;;;;7.07;5.15;;;;;;;;;;5015588;28;20050;-58
2023/04/22 13:05:33;;;;;;;6.43;3.92;;;;;;;;;;5014635;28;20038;-58
2023/04/22 13:07:59;;;;;;;7.90;3.60;;;;;;;;;;5015357;28;20046;-58
2023/04/22 13:10:27;;;;;;;8.52;4.80;;;;;;;;;;5015146;28;20050;-58
2023/04/22 13:12:53;;;;;;;5.45;4.30;;;;;;;;;;5015940;28;20133;-58
2023/04/22 13:15:20;;;;;;;6.45;5.03;;;;;;;;;;5015066;28;20045;-58
2023/04/22 13:17:46;;;;;;;9.02;5.28;;;;;;;;;;5014759;28;20046;-58
2023/04/22 13:20:15;;;;;;;7.07;5.22;;;;;;;;;;5015365;28;20527;-58
2023/04/22 13:22:42;;;;;;;7.95;4.75;;;;;;;;;;5014936;28;20041;-58
2023/04/22 13:25:08;;;;;;;6.47;5.03;;;;;;;;;;5015154;28;20646;-58
2023/04/22 13:27:35;;;;;;;6.00;4.13;;;;;;;;;;5014915;28;20049;-58
2023/04/22 13:30:01;;;;;;;7.03;4.78;;;;;;;;;;5015944;28;20042;-57
2023/04/22 13:32:27;;;;;;;6.90;4.47;;;;;;;;;;5014067;28;20049;-58
2023/04/22 13:34:53;;;;;;;6.15;4.68;;;;;;;;;;5047030;28;20049;-58
2023/04/22 13:37:20;;;;;;;5.68;4.43;;;;;;;;;;5014772;28;20551;-58
2023/04/22 13:39:46;;;;;;;10.65;5.18;;;;;;;;;;5015535;28;20042;-57
2023/04/22 13:42:12;;;;;;;7.20;4.38;;;;;;;;;;5007535;28;20492;-57
2023/04/22 13:44:38;;;;;;;6.63;4.13;;;;;;;;;;5018240;28;20526;-58
2023/04/22 13:47:04;;;;;;;6.70;4.47;;;;;;;;;;5018938;28;20489;-58
2023/04/22 13:49:31;;;;;;;6.45;4.53;;;;;;;;;;5018794;28;20540;-58
2023/04/22 13:51:57;;;;;;;7.60;4.40;;;;;;;;;;5018046;28;20121;-58
2023/04/22 13:54:24;;;;;;;7.30;4.13;;;;;;;;;;5018813;28;20044;-58
2023/04/22 13:56:51;;;;;;;5.65;3.97;;;;;;;;;;5017691;28;20038;-58
2023/04/22 13:59:17;;;;;;;3.92;2.80;;;;;;;;;;5018522;28;20651;-58
2023/04/22 14:01:43;;;;;;;4.95;3.33;;;;;;;;;;5017536;28;20046;-58
2023/04/22 14:04:09;;;;;;;5.03;3.00;;;;;;;;;;5018103;28;20044;-58
2023/04/22 14:06:35;;;;;;;5.15;3.00;;;;;;;;;;5017792;28;20042;-58
2023/04/22 14:09:03;;;;;;;5.65;2.88;;;;;;;;;;5017649;28;20793;-58
2023/04/22 14:11:29;;;;;;;3.10;2.45;;;;;;;;;;5018195;28;20153;-58
2023/04/22 14:13:55;;;;;;;5.22;2.78;;;;;;;;;;5017364;28;20422;-57
2023/04/22 14:16:21;;;;;;;5.18;2.90;;;;;;;;;;5017736;28;20042;-58
2023/04/22 14:18:47;;;;;;;3.40;2.20;;;;;;;;;;5018673;28;20092;-57
2023/04/22 14:21:14;;;;;;;6.20;3.22;;;;;;;;;;5017147;28;20554;-58
2023/04/22 14:23:41;;;;;;;4.18;2.83;;;;;;;;;;5017755;28;20448;-58
2023/04/22 14:26:08;;;;;;;5.45;2.40;;;;;;;;;;5017253;28;20627;-57